createdAt,value
2022-08-02T00:01:08.740Z,2.53
2022-08-02T00:11:13.697Z,2.53
2022-08-02T00:21:16.919Z,2.60
2022-08-02T00:31:21.895Z,2.70
2022-08-02T00:41:25.837Z,2.95
2022-08-02T00:51:29.334Z,2.88
2022-08-02T01:01:56.602Z,2.95
2022-08-02T01:12:02.655Z,2.90
2022-08-02T01:23:01.186Z,2.60
2022-08-02T01:33:07.254Z,2.28
2022-08-02T01:43:12.260Z,2.33
2022-08-02T01:53:17.113Z,2.75
2022-08-02T02:03:24.875Z,2.35
2022-08-02T02:13:33.878Z,2.25
2022-08-02T02:23:37.717Z,2.67
2022-08-02T02:34:02.498Z,3.25
2022-08-02T02:44:06.417Z,2.40
2022-08-02T02:54:31.016Z,2.88
2022-08-02T03:04:55.809Z,2.47
2022-08-02T03:14:55.616Z,2.55
2022-08-02T03:24:57.736Z,2.58
2022-08-02T03:35:01.112Z,2.88
2022-08-02T03:45:08.805Z,3.50
2022-08-02T03:55:13.367Z,2.15
2022-08-02T04:05:17.412Z,2.13
2022-08-02T04:15:19.932Z,2.58
2022-08-02T04:25:38.193Z,2.30
2022-08-02T04:35:43.278Z,2.40
2022-08-02T04:45:47.241Z,2.17
2022-08-02T04:55:50.538Z,2.67
2022-08-02T05:05:57.130Z,2.60
2022-08-02T05:16:04.075Z,3.80
2022-08-02T05:26:06.977Z,3.30
2022-08-02T05:36:11.321Z,3.33
2022-08-02T05:46:19.392Z,3.78
2022-08-02T05:56:42.021Z,3.63
2022-08-02T06:06:50.458Z,3.05
2022-08-02T06:16:55.319Z,3.33
2022-08-02T06:27:00.021Z,2.90
2022-08-02T06:37:17.741Z,2.80
2022-08-02T06:47:19.898Z,3.70
2022-08-02T06:57:22.201Z,3.95
2022-08-02T07:07:24.418Z,5.45
2022-08-02T07:17:26.284Z,3.90
2022-08-02T07:27:29.219Z,3.70
2022-08-02T07:37:54.204Z,3.00
2022-08-02T07:47:58.816Z,2.00
2022-08-02T07:58:01.095Z,1.40
2022-08-02T08:08:03.037Z,1.20
2022-08-02T08:18:04.878Z,1.30
2022-08-02T08:28:06.675Z,1.00
2022-08-02T08:38:08.460Z,1.20
2022-08-02T08:48:30.546Z,0.95
2022-08-02T08:58:34.797Z,1.60
2022-08-02T09:08:36.899Z,1.63
2022-08-02T09:18:41.705Z,0.60
2022-08-02T09:28:45.677Z,0.82
2022-08-02T09:39:08.294Z,0.80
2022-08-02T09:49:13.429Z,0.82
2022-08-02T09:59:16.119Z,0.55
2022-08-02T10:09:18.177Z,0.60
2022-08-02T10:20:01.173Z,0.90
2022-08-02T10:29:55.518Z,1.10
2022-08-02T10:40:00.563Z,1.20
2022-08-02T10:50:06.218Z,0.80
2022-08-02T11:00:26.893Z,0.70
2022-08-02T11:10:36.344Z,0.60
2022-08-02T11:20:38.198Z,0.60
2022-08-02T11:30:40.978Z,0.60
2022-08-02T11:40:44.577Z,0.68
2022-08-02T11:50:47.375Z,0.65
2022-08-02T12:00:49.376Z,0.50
2022-08-02T12:10:53.518Z,1.00
2022-08-02T12:20:59.456Z,0.70
2022-08-02T12:31:05.220Z,0.82
2022-08-02T12:41:31.824Z,0.73
2022-08-02T12:51:55.806Z,0.40
2022-08-02T13:02:07.072Z,0.52
2022-08-02T13:12:10.954Z,0.75
2022-08-02T13:22:15.750Z,0.50
2022-08-02T13:32:18.281Z,0.63
2022-08-02T13:42:20.019Z,0.60
2022-08-02T13:52:22.831Z,0.40
2022-08-02T14:02:25.071Z,0.60
2022-08-02T14:12:27.532Z,0.50
2022-08-02T14:22:30.817Z,0.60
2022-08-02T14:32:33.215Z,0.70
2022-08-02T14:42:35.056Z,0.60
2022-08-02T14:52:36.934Z,0.73
2022-08-02T15:02:38.675Z,0.60
2022-08-02T15:12:41.655Z,0.80
2022-08-02T15:22:43.970Z,0.60
2022-08-02T15:32:53.416Z,0.60
2022-08-02T15:42:57.155Z,0.90
2022-08-02T15:52:59.292Z,0.70
2022-08-02T16:03:03.453Z,0.90
2022-08-02T16:13:23.655Z,0.95
2022-08-02T16:24:01.664Z,0.73
2022-08-02T16:33:48.751Z,0.80
2022-08-02T16:43:51.374Z,0.95
2022-08-02T16:54:00.160Z,1.00
2022-08-02T17:04:03.496Z,2.17
2022-08-02T17:14:08.413Z,0.80
2022-08-02T17:24:12.113Z,0.93
2022-08-02T17:34:13.878Z,0.77
2022-08-02T17:44:37.012Z,0.88
2022-08-02T17:54:41.094Z,0.80
2022-08-02T18:04:53.155Z,0.93
2022-08-02T18:14:56.695Z,0.93
2022-08-02T18:24:58.371Z,1.30
2022-08-02T18:35:02.431Z,0.80
2022-08-02T18:45:05.454Z,1.13
2022-08-02T18:55:17.050Z,0.85
2022-08-02T19:05:21.227Z,1.30
2022-08-02T19:15:26.176Z,1.65
2022-08-02T19:25:28.273Z,1.10
2022-08-02T19:36:01.571Z,1.15
2022-08-02T19:46:08.495Z,1.23
2022-08-02T19:56:25.912Z,1.30
2022-08-02T20:06:30.344Z,1.08
2022-08-02T20:16:38.038Z,1.00
2022-08-02T20:38:00.171Z,1.48
2022-08-02T20:47:39.280Z,1.40
2022-08-02T20:58:00.328Z,1.65
2022-08-02T21:08:09.541Z,1.40
2022-08-02T21:18:24.017Z,1.05
2022-08-02T21:28:44.975Z,0.82
2022-08-02T21:38:48.015Z,1.10
2022-08-02T21:48:49.877Z,1.10
2022-08-02T21:58:51.734Z,1.20
2022-08-02T22:08:54.094Z,1.23
2022-08-02T22:18:59.703Z,1.15
2022-08-02T22:29:01.776Z,1.08
2022-08-02T22:39:04.771Z,1.48
2022-08-02T22:49:38.797Z,1.45
2022-08-02T22:59:06.083Z,1.20
2022-08-02T22:59:44.693Z,1.27
2022-08-02T23:09:50.853Z,1.20
2022-08-02T23:19:53.722Z,1.67
2022-08-02T23:29:55.872Z,1.98
2022-08-02T23:39:58.052Z,1.90
2022-08-02T23:49:59.854Z,2.60
